aviador You're here:

KFLO Decoded Metar

FLORENCE in SC, USA
Report Time2017-11-25 02:53:00
UTC Time2017-11-25 03:45:40
Flight Rules vfr VFR
Wind360° at 03 kt
W.Decomp.*RWY 01: 3.0 kt HW 0.3 kt LCW
RWY 09: 0.3 kt HW 3 kt LCW
Visibility9999 m
Phenomena:N/A
Clouds:N/A
Expected CloudBase > 1,200 ft AGL from Temp-Dew spread
CeilingNone
Temp04°C (ISA -11)
Dew Point01°C (81% RH)
AAT1.1°C
QNH1015 hPa
Density Alt-1,132 ft
Elevation144 ft
Report Wrong Elevation
Raw Report
METAR KFLO 250253Z AUTO 36003KT 10SM CLR 04/01 A2997 RMK AO2 SLP148
T00440006 50003 $=

Extra information for KFLO:More info

Metar Taf Metar & Taf Last 4 Metars F.Rules Stats Wind Profile Meteogram Temp Stats Airport Information Weather charts Add Link Nearby VenuesMetar ALERT Operation Metar Decoded Social comments

AIRNAV info for KFLO